sensor_id;sensor_type;location;lat;lon;timestamp;P1;durP1;ratioP1;P2;durP2;ratioP2
58260;SDS011;44058;52.898;6.502;2023-02-18T00:01:19;10.18;;;2.55;;
58260;SDS011;44058;52.898;6.502;2023-02-18T00:03:51;10.60;;;2.67;;
58260;SDS011;44058;52.898;6.502;2023-02-18T00:06:19;15.23;;;2.13;;
58260;SDS011;44058;52.898;6.502;2023-02-18T00:08:46;16.30;;;3.38;;
58260;SDS011;44058;52.898;6.502;2023-02-18T00:11:13;12.43;;;2.55;;
58260;SDS011;44058;52.898;6.502;2023-02-18T00:13:39;14.00;;;2.75;;
58260;SDS011;44058;52.898;6.502;2023-02-18T00:16:09;15.30;;;2.60;;
58260;SDS011;44058;52.898;6.502;2023-02-18T00:18:43;15.45;;;3.50;;
58260;SDS011;44058;52.898;6.502;2023-02-18T00:21:10;12.90;;;2.50;;
58260;SDS011;44058;52.898;6.502;2023-02-18T00:23:36;9.02;;;2.13;;
58260;SDS011;44058;52.898;6.502;2023-02-18T00:26:04;13.40;;;2.40;;
58260;SDS011;44058;52.898;6.502;2023-02-18T00:28:30;12.25;;;2.70;;
58260;SDS011;44058;52.898;6.502;2023-02-18T00:30:56;15.23;;;3.55;;
58260;SDS011;44058;52.898;6.502;2023-02-18T00:33:23;10.07;;;2.53;;
58260;SDS011;44058;52.898;6.502;2023-02-18T00:35:49;9.55;;;2.30;;
58260;SDS011;44058;52.898;6.502;2023-02-18T00:38:17;9.13;;;2.30;;
58260;SDS011;44058;52.898;6.502;2023-02-18T00:40:43;14.23;;;2.67;;
58260;SDS011;44058;52.898;6.502;2023-02-18T00:43:10;12.90;;;3.05;;
58260;SDS011;44058;52.898;6.502;2023-02-18T00:45:36;15.63;;;2.58;;
58260;SDS011;44058;52.898;6.502;2023-02-18T00:48:13;12.57;;;2.65;;
58260;SDS011;44058;52.898;6.502;2023-02-18T00:50:40;15.10;;;4.05;;
58260;SDS011;44058;52.898;6.502;2023-02-18T00:53:06;13.35;;;4.45;;
58260;SDS011;44058;52.898;6.502;2023-02-18T00:55:32;21.65;;;4.50;;
58260;SDS011;44058;52.898;6.502;2023-02-18T00:57:58;10.98;;;3.85;;
58260;SDS011;44058;52.898;6.502;2023-02-18T01:00:24;15.43;;;4.22;;
58260;SDS011;44058;52.898;6.502;2023-02-18T01:02:51;16.85;;;5.43;;
58260;SDS011;44058;52.898;6.502;2023-02-18T01:05:19;14.20;;;4.00;;
58260;SDS011;44058;52.898;6.502;2023-02-18T01:07:46;17.55;;;4.60;;
58260;SDS011;44058;52.898;6.502;2023-02-18T01:10:13;16.25;;;4.63;;
58260;SDS011;44058;52.898;6.502;2023-02-18T01:12:39;27.30;;;5.90;;
58260;SDS011;44058;52.898;6.502;2023-02-18T01:15:05;16.48;;;4.80;;
58260;SDS011;44058;52.898;6.502;2023-02-18T01:17:32;18.50;;;5.38;;
58260;SDS011;44058;52.898;6.502;2023-02-18T01:20:08;18.33;;;5.22;;
58260;SDS011;44058;52.898;6.502;2023-02-18T01:22:35;17.55;;;5.25;;
58260;SDS011;44058;52.898;6.502;2023-02-18T01:25:02;15.65;;;5.32;;
58260;SDS011;44058;52.898;6.502;2023-02-18T01:27:28;23.35;;;6.60;;
58260;SDS011;44058;52.898;6.502;2023-02-18T01:29:54;13.30;;;5.30;;
58260;SDS011;44058;52.898;6.502;2023-02-18T01:32:21;26.77;;;7.20;;
58260;SDS011;44058;52.898;6.502;2023-02-18T01:34:47;17.83;;;5.50;;
58260;SDS011;44058;52.898;6.502;2023-02-18T01:37:15;18.13;;;6.28;;
58260;SDS011;44058;52.898;6.502;2023-02-18T01:39:45;17.23;;;6.40;;
58260;SDS011;44058;52.898;6.502;2023-02-18T01:42:21;18.50;;;5.82;;
58260;SDS011;44058;52.898;6.502;2023-02-18T01:44:48;17.63;;;5.78;;
58260;SDS011;44058;52.898;6.502;2023-02-18T01:47:14;20.45;;;6.25;;
58260;SDS011;44058;52.898;6.502;2023-02-18T01:49:40;17.83;;;7.18;;
58260;SDS011;44058;52.898;6.502;2023-02-18T01:52:11;22.73;;;7.60;;
58260;SDS011;44058;52.898;6.502;2023-02-18T01:54:38;18.73;;;7.13;;
58260;SDS011;44058;52.898;6.502;2023-02-18T01:59:33;15.95;;;7.55;;
58260;SDS011;44058;52.898;6.502;2023-02-18T02:02:02;20.27;;;8.20;;
58260;SDS011;44058;52.898;6.502;2023-02-18T02:04:29;17.00;;;7.80;;
58260;SDS011;44058;52.898;6.502;2023-02-18T02:06:55;19.80;;;8.23;;
58260;SDS011;44058;52.898;6.502;2023-02-18T02:09:22;21.77;;;8.82;;
58260;SDS011;44058;52.898;6.502;2023-02-18T02:12:04;21.63;;;8.90;;
58260;SDS011;44058;52.898;6.502;2023-02-18T02:14:40;19.50;;;7.90;;
58260;SDS011;44058;52.898;6.502;2023-02-18T02:17:16;21.35;;;7.90;;
58260;SDS011;44058;52.898;6.502;2023-02-18T02:20:06;15.88;;;8.07;;
58260;SDS011;44058;52.898;6.502;2023-02-18T02:22:59;21.67;;;7.68;;
58260;SDS011;44058;52.898;6.502;2023-02-18T02:35:36;15.20;;;7.10;;
58260;SDS011;44058;52.898;6.502;2023-02-18T02:38:04;16.23;;;8.00;;
58260;SDS011;44058;52.898;6.502;2023-02-18T02:46:26;21.90;;;7.75;;
58260;SDS011;44058;52.898;6.502;2023-02-18T02:49:05;14.23;;;6.28;;
58260;SDS011;44058;52.898;6.502;2023-02-18T02:51:47;15.38;;;6.00;;
58260;SDS011;44058;52.898;6.502;2023-02-18T02:54:17;14.50;;;5.47;;
58260;SDS011;44058;52.898;6.502;2023-02-18T02:56:43;16.42;;;5.80;;
58260;SDS011;44058;52.898;6.502;2023-02-18T02:59:12;10.80;;;5.00;;
58260;SDS011;44058;52.898;6.502;2023-02-18T03:04:12;12.02;;;5.07;;
58260;SDS011;44058;52.898;6.502;2023-02-18T03:12:06;10.38;;;4.30;;
58260;SDS011;44058;52.898;6.502;2023-02-18T03:14:55;9.75;;;3.83;;
58260;SDS011;44058;52.898;6.502;2023-02-18T03:17:29;10.65;;;3.90;;
58260;SDS011;44058;52.898;6.502;2023-02-18T03:20:22;10.32;;;4.63;;
58260;SDS011;44058;52.898;6.502;2023-02-18T03:22:45;12.25;;;4.75;;
58260;SDS011;44058;52.898;6.502;2023-02-18T03:25:12;19.33;;;6.47;;
58260;SDS011;44058;52.898;6.502;2023-02-18T03:27:42;17.23;;;6.05;;
58260;SDS011;44058;52.898;6.502;2023-02-18T03:30:12;16.23;;;7.85;;
58260;SDS011;44058;52.898;6.502;2023-02-18T03:32:40;23.02;;;8.48;;
58260;SDS011;44058;52.898;6.502;2023-02-18T03:35:12;17.55;;;8.68;;
58260;SDS011;44058;52.898;6.502;2023-02-18T03:37:41;24.00;;;11.05;;
58260;SDS011;44058;52.898;6.502;2023-02-18T03:40:08;21.63;;;10.35;;
58260;SDS011;44058;52.898;6.502;2023-02-18T03:42:35;29.15;;;11.32;;
58260;SDS011;44058;52.898;6.502;2023-02-18T03:45:01;26.58;;;12.02;;
58260;SDS011;44058;52.898;6.502;2023-02-18T03:47:27;34.97;;;13.85;;
58260;SDS011;44058;52.898;6.502;2023-02-18T03:49:53;34.17;;;14.70;;
58260;SDS011;44058;52.898;6.502;2023-02-18T03:52:20;32.67;;;15.52;;
58260;SDS011;44058;52.898;6.502;2023-02-18T03:54:46;33.85;;;17.10;;
58260;SDS011;44058;52.898;6.502;2023-02-18T03:57:12;36.70;;;18.30;;
58260;SDS011;44058;52.898;6.502;2023-02-18T03:59:39;34.60;;;19.13;;
58260;SDS011;44058;52.898;6.502;2023-02-18T04:02:05;39.72;;;17.90;;
58260;SDS011;44058;52.898;6.502;2023-02-18T04:04:31;43.53;;;19.98;;
58260;SDS011;44058;52.898;6.502;2023-02-18T04:06:57;39.05;;;20.10;;
58260;SDS011;44058;52.898;6.502;2023-02-18T04:09:23;41.22;;;21.08;;
58260;SDS011;44058;52.898;6.502;2023-02-18T04:11:50;40.85;;;20.98;;
58260;SDS011;44058;52.898;6.502;2023-02-18T04:14:17;41.85;;;21.58;;
58260;SDS011;44058;52.898;6.502;2023-02-18T04:16:43;41.45;;;20.00;;
58260;SDS011;44058;52.898;6.502;2023-02-18T04:19:09;42.28;;;20.67;;
58260;SDS011;44058;52.898;6.502;2023-02-18T04:21:35;45.55;;;21.27;;
58260;SDS011;44058;52.898;6.502;2023-02-18T04:24:02;40.80;;;20.80;;
58260;SDS011;44058;52.898;6.502;2023-02-18T04:26:28;45.00;;;23.08;;
58260;SDS011;44058;52.898;6.502;2023-02-18T04:28:54;45.88;;;22.77;;
58260;SDS011;44058;52.898;6.502;2023-02-18T04:31:23;42.65;;;22.70;;
58260;SDS011;44058;52.898;6.502;2023-02-18T04:33:49;49.38;;;23.52;;
58260;SDS011;44058;52.898;6.502;2023-02-18T04:36:15;52.72;;;22.67;;
58260;SDS011;44058;52.898;6.502;2023-02-18T04:38:41;45.92;;;22.45;;
58260;SDS011;44058;52.898;6.502;2023-02-18T04:41:08;45.15;;;23.30;;
58260;SDS011;44058;52.898;6.502;2023-02-18T04:43:34;48.67;;;22.65;;
58260;SDS011;44058;52.898;6.502;2023-02-18T04:46:00;43.85;;;23.08;;
58260;SDS011;44058;52.898;6.502;2023-02-18T04:48:26;46.90;;;24.35;;
58260;SDS011;44058;52.898;6.502;2023-02-18T04:50:53;46.42;;;23.90;;
58260;SDS011;44058;52.898;6.502;2023-02-18T04:53:19;49.03;;;24.05;;
58260;SDS011;44058;52.898;6.502;2023-02-18T04:55:48;56.47;;;26.30;;
58260;SDS011;44058;52.898;6.502;2023-02-18T04:58:15;52.95;;;25.27;;
58260;SDS011;44058;52.898;6.502;2023-02-18T05:00:41;57.03;;;25.98;;
58260;SDS011;44058;52.898;6.502;2023-02-18T05:03:07;60.97;;;26.42;;
58260;SDS011;44058;52.898;6.502;2023-02-18T05:05:33;49.60;;;24.48;;
58260;SDS011;44058;52.898;6.502;2023-02-18T05:08:00;57.10;;;26.75;;
58260;SDS011;44058;52.898;6.502;2023-02-18T05:10:26;58.25;;;25.98;;
58260;SDS011;44058;52.898;6.502;2023-02-18T05:12:52;52.38;;;25.20;;
58260;SDS011;44058;52.898;6.502;2023-02-18T05:15:19;52.45;;;24.92;;
58260;SDS011;44058;52.898;6.502;2023-02-18T05:17:46;51.22;;;24.50;;
58260;SDS011;44058;52.898;6.502;2023-02-18T05:20:12;55.38;;;26.27;;
58260;SDS011;44058;52.898;6.502;2023-02-18T05:22:38;63.45;;;27.02;;
58260;SDS011;44058;52.898;6.502;2023-02-18T05:25:04;58.83;;;26.40;;
58260;SDS011;44058;52.898;6.502;2023-02-18T05:27:31;59.75;;;25.52;;
58260;SDS011;44058;52.898;6.502;2023-02-18T05:29:58;68.28;;;28.15;;
58260;SDS011;44058;52.898;6.502;2023-02-18T05:32:24;62.13;;;25.67;;
58260;SDS011;44058;52.898;6.502;2023-02-18T05:34:50;65.80;;;25.73;;
58260;SDS011;44058;52.898;6.502;2023-02-18T05:37:16;55.30;;;23.92;;
58260;SDS011;44058;52.898;6.502;2023-02-18T05:39:50;53.25;;;23.25;;
58260;SDS011;44058;52.898;6.502;2023-02-18T05:42:16;50.53;;;20.42;;
58260;SDS011;44058;52.898;6.502;2023-02-18T05:44:42;40.25;;;19.50;;
58260;SDS011;44058;52.898;6.502;2023-02-18T05:47:09;46.88;;;19.77;;
58260;SDS011;44058;52.898;6.502;2023-02-18T05:49:36;40.88;;;17.23;;
58260;SDS011;44058;52.898;6.502;2023-02-18T05:52:02;38.15;;;16.70;;
58260;SDS011;44058;52.898;6.502;2023-02-18T05:54:29;36.58;;;16.92;;
58260;SDS011;44058;52.898;6.502;2023-02-18T05:56:55;28.67;;;13.50;;
58260;SDS011;44058;52.898;6.502;2023-02-18T05:59:22;33.63;;;15.13;;
58260;SDS011;44058;52.898;6.502;2023-02-18T06:01:48;27.92;;;12.70;;
58260;SDS011;44058;52.898;6.502;2023-02-18T06:04:15;25.73;;;12.27;;
58260;SDS011;44058;52.898;6.502;2023-02-18T06:06:43;23.95;;;11.52;;
58260;SDS011;44058;52.898;6.502;2023-02-18T06:09:12;20.60;;;10.45;;
58260;SDS011;44058;52.898;6.502;2023-02-18T06:11:38;17.08;;;8.52;;
58260;SDS011;44058;52.898;6.502;2023-02-18T06:14:04;19.60;;;8.93;;
58260;SDS011;44058;52.898;6.502;2023-02-18T06:16:31;18.58;;;9.00;;
58260;SDS011;44058;52.898;6.502;2023-02-18T06:18:59;18.50;;;8.20;;
58260;SDS011;44058;52.898;6.502;2023-02-18T06:21:26;14.00;;;7.15;;
58260;SDS011;44058;52.898;6.502;2023-02-18T06:23:52;11.73;;;6.47;;
58260;SDS011;44058;52.898;6.502;2023-02-18T06:26:18;13.80;;;6.93;;
58260;SDS011;44058;52.898;6.502;2023-02-18T06:28:44;13.13;;;6.05;;
58260;SDS011;44058;52.898;6.502;2023-02-18T06:31:11;10.40;;;5.30;;
58260;SDS011;44058;52.898;6.502;2023-02-18T06:33:38;11.63;;;6.03;;
58260;SDS011;44058;52.898;6.502;2023-02-18T06:36:05;8.95;;;5.22;;
58260;SDS011;44058;52.898;6.502;2023-02-18T06:38:35;8.18;;;5.22;;
58260;SDS011;44058;52.898;6.502;2023-02-18T06:43:27;8.80;;;5.20;;
58260;SDS011;44058;52.898;6.502;2023-02-18T06:45:54;11.60;;;6.20;;
58260;SDS011;44058;52.898;6.502;2023-02-18T06:48:21;10.25;;;6.55;;
58260;SDS011;44058;52.898;6.502;2023-02-18T06:50:48;12.32;;;7.88;;
58260;SDS011;44058;52.898;6.502;2023-02-18T06:53:14;12.20;;;8.07;;
58260;SDS011;44058;52.898;6.502;2023-02-18T06:55:43;14.38;;;9.80;;
58260;SDS011;44058;52.898;6.502;2023-02-18T06:58:10;15.75;;;9.95;;
58260;SDS011;44058;52.898;6.502;2023-02-18T07:00:36;15.95;;;10.63;;
58260;SDS011;44058;52.898;6.502;2023-02-18T07:03:03;13.77;;;10.63;;
58260;SDS011;44058;52.898;6.502;2023-02-18T07:05:29;16.08;;;11.23;;
58260;SDS011;44058;52.898;6.502;2023-02-18T07:07:56;17.65;;;11.32;;
58260;SDS011;44058;52.898;6.502;2023-02-18T07:10:22;17.88;;;11.98;;
58260;SDS011;44058;52.898;6.502;2023-02-18T07:12:49;20.35;;;12.10;;
58260;SDS011;44058;52.898;6.502;2023-02-18T07:15:15;20.35;;;12.70;;
58260;SDS011;44058;52.898;6.502;2023-02-18T07:17:42;21.90;;;13.70;;
58260;SDS011;44058;52.898;6.502;2023-02-18T07:20:10;19.92;;;13.30;;
58260;SDS011;44058;52.898;6.502;2023-02-18T07:22:36;19.10;;;12.57;;
58260;SDS011;44058;52.898;6.502;2023-02-18T07:25:04;19.52;;;13.48;;
58260;SDS011;44058;52.898;6.502;2023-02-18T07:27:30;22.58;;;13.02;;
58260;SDS011;44058;52.898;6.502;2023-02-18T07:29:56;20.48;;;12.82;;
58260;SDS011;44058;52.898;6.502;2023-02-18T07:32:23;24.30;;;13.63;;
58260;SDS011;44058;52.898;6.502;2023-02-18T07:34:52;20.40;;;13.15;;
58260;SDS011;44058;52.898;6.502;2023-02-18T07:37:24;20.10;;;13.27;;
58260;SDS011;44058;52.898;6.502;2023-02-18T07:39:50;16.23;;;11.60;;
58260;SDS011;44058;52.898;6.502;2023-02-18T07:42:16;18.13;;;12.05;;
58260;SDS011;44058;52.898;6.502;2023-02-18T07:44:42;21.08;;;12.48;;
58260;SDS011;44058;52.898;6.502;2023-02-18T07:47:12;17.40;;;11.80;;
58260;SDS011;44058;52.898;6.502;2023-02-18T07:49:39;15.35;;;10.07;;
58260;SDS011;44058;52.898;6.502;2023-02-18T07:52:07;18.95;;;11.57;;
58260;SDS011;44058;52.898;6.502;2023-02-18T07:54:48;19.58;;;11.02;;
58260;SDS011;44058;52.898;6.502;2023-02-18T07:57:14;17.48;;;10.85;;
58260;SDS011;44058;52.898;6.502;2023-02-18T08:02:17;20.17;;;10.25;;
58260;SDS011;44058;52.898;6.502;2023-02-18T08:04:44;15.75;;;9.82;;
58260;SDS011;44058;52.898;6.502;2023-02-18T08:07:13;17.77;;;9.52;;
58260;SDS011;44058;52.898;6.502;2023-02-18T08:09:40;18.25;;;8.93;;
58260;SDS011;44058;52.898;6.502;2023-02-18T08:12:06;15.82;;;9.02;;
58260;SDS011;44058;52.898;6.502;2023-02-18T08:14:32;14.15;;;8.52;;
58260;SDS011;44058;52.898;6.502;2023-02-18T08:16:58;17.80;;;8.70;;
58260;SDS011;44058;52.898;6.502;2023-02-18T08:19:25;15.85;;;9.00;;
58260;SDS011;44058;52.898;6.502;2023-02-18T08:21:52;18.85;;;8.90;;
58260;SDS011;44058;52.898;6.502;2023-02-18T08:24:18;16.85;;;8.90;;
58260;SDS011;44058;52.898;6.502;2023-02-18T08:26:44;18.10;;;9.60;;
58260;SDS011;44058;52.898;6.502;2023-02-18T08:29:10;22.08;;;9.57;;
58260;SDS011;44058;52.898;6.502;2023-02-18T08:31:36;18.30;;;9.73;;
58260;SDS011;44058;52.898;6.502;2023-02-18T08:34:11;18.80;;;9.70;;
58260;SDS011;44058;52.898;6.502;2023-02-18T08:36:37;21.23;;;9.70;;
58260;SDS011;44058;52.898;6.502;2023-02-18T08:39:03;13.18;;;8.63;;
58260;SDS011;44058;52.898;6.502;2023-02-18T08:41:31;15.05;;;8.80;;
58260;SDS011;44058;52.898;6.502;2023-02-18T08:43:58;16.48;;;9.30;;
58260;SDS011;44058;52.898;6.502;2023-02-18T08:46:24;13.63;;;8.20;;
58260;SDS011;44058;52.898;6.502;2023-02-18T08:48:50;19.02;;;8.18;;
58260;SDS011;44058;52.898;6.502;2023-02-18T08:51:18;14.93;;;8.18;;
58260;SDS011;44058;52.898;6.502;2023-02-18T08:53:44;15.07;;;7.32;;
58260;SDS011;44058;52.898;6.502;2023-02-18T08:56:11;11.40;;;7.20;;
58260;SDS011;44058;52.898;6.502;2023-02-18T08:58:38;15.02;;;6.72;;
58260;SDS011;44058;52.898;6.502;2023-02-18T09:01:07;14.20;;;7.00;;
58260;SDS011;44058;52.898;6.502;2023-02-18T09:03:33;12.15;;;6.88;;
58260;SDS011;44058;52.898;6.502;2023-02-18T09:06:00;11.32;;;6.03;;
58260;SDS011;44058;52.898;6.502;2023-02-18T09:08:27;11.23;;;5.93;;
58260;SDS011;44058;52.898;6.502;2023-02-18T09:10:54;10.23;;;6.03;;
58260;SDS011;44058;52.898;6.502;2023-02-18T09:13:21;9.50;;;5.15;;
58260;SDS011;44058;52.898;6.502;2023-02-18T09:18:22;11.10;;;4.95;;
58260;SDS011;44058;52.898;6.502;2023-02-18T09:20:49;9.02;;;4.80;;
58260;SDS011;44058;52.898;6.502;2023-02-18T09:23:17;11.27;;;4.93;;
58260;SDS011;44058;52.898;6.502;2023-02-18T09:25:47;9.48;;;5.13;;
58260;SDS011;44058;52.898;6.502;2023-02-18T09:28:13;11.13;;;6.00;;
58260;SDS011;44058;52.898;6.502;2023-02-18T09:30:39;14.50;;;6.00;;
58260;SDS011;44058;52.898;6.502;2023-02-18T09:33:05;13.45;;;6.03;;
58260;SDS011;44058;52.898;6.502;2023-02-18T09:35:31;11.50;;;5.55;;
58260;SDS011;44058;52.898;6.502;2023-02-18T09:37:58;9.98;;;5.40;;
58260;SDS011;44058;52.898;6.502;2023-02-18T09:40:28;12.20;;;5.00;;
58260;SDS011;44058;52.898;6.502;2023-02-18T09:42:55;11.80;;;4.78;;
58260;SDS011;44058;52.898;6.502;2023-02-18T09:45:24;12.07;;;4.00;;
58260;SDS011;44058;52.898;6.502;2023-02-18T09:47:51;10.77;;;4.32;;
58260;SDS011;44058;52.898;6.502;2023-02-18T09:50:19;14.15;;;4.90;;
58260;SDS011;44058;52.898;6.502;2023-02-18T09:52:46;13.20;;;4.57;;
58260;SDS011;44058;52.898;6.502;2023-02-18T09:57:48;14.45;;;3.53;;
58260;SDS011;44058;52.898;6.502;2023-02-18T10:00:19;12.18;;;3.58;;
58260;SDS011;44058;52.898;6.502;2023-02-18T10:02:56;12.73;;;3.50;;
58260;SDS011;44058;52.898;6.502;2023-02-18T10:05:26;7.63;;;3.10;;
58260;SDS011;44058;52.898;6.502;2023-02-18T10:07:53;8.95;;;3.22;;
58260;SDS011;44058;52.898;6.502;2023-02-18T10:10:26;12.95;;;2.88;;
58260;SDS011;44058;52.898;6.502;2023-02-18T10:12:56;11.63;;;3.38;;
58260;SDS011;44058;52.898;6.502;2023-02-18T10:15:24;11.55;;;2.72;;
58260;SDS011;44058;52.898;6.502;2023-02-18T10:17:57;15.93;;;3.63;;
58260;SDS011;44058;52.898;6.502;2023-02-18T10:20:26;10.10;;;3.10;;
58260;SDS011;44058;52.898;6.502;2023-02-18T10:22:54;13.40;;;2.90;;
58260;SDS011;44058;52.898;6.502;2023-02-18T10:25:23;12.00;;;2.80;;
58260;SDS011;44058;52.898;6.502;2023-02-18T10:27:50;11.07;;;2.58;;
58260;SDS011;44058;52.898;6.502;2023-02-18T10:32:45;10.48;;;2.70;;
58260;SDS011;44058;52.898;6.502;2023-02-18T10:35:16;13.80;;;3.00;;
58260;SDS011;44058;52.898;6.502;2023-02-18T10:40:26;9.82;;;2.33;;
58260;SDS011;44058;52.898;6.502;2023-02-18T10:45:37;14.13;;;2.10;;
58260;SDS011;44058;52.898;6.502;2023-02-18T10:48:10;11.77;;;2.53;;
58260;SDS011;44058;52.898;6.502;2023-02-18T10:50:43;11.38;;;2.97;;
58260;SDS011;44058;52.898;6.502;2023-02-18T10:53:13;12.40;;;2.83;;
58260;SDS011;44058;52.898;6.502;2023-02-18T10:55:42;11.10;;;2.55;;
58260;SDS011;44058;52.898;6.502;2023-02-18T10:58:23;14.55;;;2.90;;
58260;SDS011;44058;52.898;6.502;2023-02-18T11:00:50;10.50;;;2.38;;
58260;SDS011;44058;52.898;6.502;2023-02-18T11:03:18;8.57;;;1.95;;
58260;SDS011;44058;52.898;6.502;2023-02-18T11:05:45;13.57;;;2.63;;
58260;SDS011;44058;52.898;6.502;2023-02-18T11:08:22;11.85;;;2.85;;
58260;SDS011;44058;52.898;6.502;2023-02-18T11:10:48;13.35;;;2.72;;
58260;SDS011;44058;52.898;6.502;2023-02-18T11:13:16;8.75;;;2.35;;
58260;SDS011;44058;52.898;6.502;2023-02-18T11:16:03;12.30;;;2.67;;
58260;SDS011;44058;52.898;6.502;2023-02-18T11:18:40;11.40;;;2.13;;
58260;SDS011;44058;52.898;6.502;2023-02-18T11:23:50;11.00;;;2.35;;
58260;SDS011;44058;52.898;6.502;2023-02-18T11:26:17;11.85;;;2.47;;
58260;SDS011;44058;52.898;6.502;2023-02-18T11:28:50;9.30;;;2.30;;
58260;SDS011;44058;52.898;6.502;2023-02-18T11:31:25;13.13;;;2.95;;
58260;SDS011;44058;52.898;6.502;2023-02-18T11:33:53;10.20;;;2.45;;
58260;SDS011;44058;52.898;6.502;2023-02-18T11:36:21;14.95;;;2.72;;
58260;SDS011;44058;52.898;6.502;2023-02-18T11:38:49;11.00;;;2.03;;
58260;SDS011;44058;52.898;6.502;2023-02-18T11:41:19;7.47;;;1.98;;
58260;SDS011;44058;52.898;6.502;2023-02-18T11:43:47;8.98;;;2.50;;
58260;SDS011;44058;52.898;6.502;2023-02-18T11:46:15;9.77;;;2.30;;
58260;SDS011;44058;52.898;6.502;2023-02-18T11:48:43;10.38;;;2.75;;
58260;SDS011;44058;52.898;6.502;2023-02-18T11:51:14;8.88;;;2.08;;
58260;SDS011;44058;52.898;6.502;2023-02-18T11:53:52;10.70;;;2.70;;
58260;SDS011;44058;52.898;6.502;2023-02-18T11:56:19;11.65;;;2.10;;
58260;SDS011;44058;52.898;6.502;2023-02-18T11:58:46;11.98;;;2.70;;
58260;SDS011;44058;52.898;6.502;2023-02-18T12:04:09;8.32;;;2.63;;
58260;SDS011;44058;52.898;6.502;2023-02-18T12:07:04;9.77;;;2.70;;
58260;SDS011;44058;52.898;6.502;2023-02-18T12:11:50;10.93;;;2.55;;
58260;SDS011;44058;52.898;6.502;2023-02-18T12:14:19;8.38;;;2.10;;
58260;SDS011;44058;52.898;6.502;2023-02-18T12:21:44;7.85;;;2.33;;
58260;SDS011;44058;52.898;6.502;2023-02-18T12:26:57;5.80;;;2.00;;
58260;SDS011;44058;52.898;6.502;2023-02-18T12:32:39;9.18;;;2.45;;
58260;SDS011;44058;52.898;6.502;2023-02-18T12:35:18;10.30;;;3.30;;
58260;SDS011;44058;52.898;6.502;2023-02-18T12:55:52;11.20;;;2.80;;
58260;SDS011;44058;52.898;6.502;2023-02-18T12:58:34;8.10;;;2.08;;
58260;SDS011;44058;52.898;6.502;2023-02-18T13:08:49;7.00;;;2.20;;
58260;SDS011;44058;52.898;6.502;2023-02-18T13:13:49;8.32;;;2.00;;
58260;SDS011;44058;52.898;6.502;2023-02-18T13:16:16;12.63;;;2.60;;
58260;SDS011;44058;52.898;6.502;2023-02-18T13:18:46;9.82;;;2.83;;
58260;SDS011;44058;52.898;6.502;2023-02-18T13:21:15;11.48;;;2.38;;
58260;SDS011;44058;52.898;6.502;2023-02-18T13:23:45;9.30;;;1.95;;
58260;SDS011;44058;52.898;6.502;2023-02-18T13:26:14;7.47;;;1.92;;
58260;SDS011;44058;52.898;6.502;2023-02-18T13:32:02;11.68;;;2.30;;
58260;SDS011;44058;52.898;6.502;2023-02-18T13:39:17;6.93;;;2.25;;
58260;SDS011;44058;52.898;6.502;2023-02-18T13:41:45;7.28;;;1.77;;
58260;SDS011;44058;52.898;6.502;2023-02-18T13:46:53;12.25;;;2.58;;
58260;SDS011;44058;52.898;6.502;2023-02-18T13:49:24;7.28;;;2.28;;
58260;SDS011;44058;52.898;6.502;2023-02-18T13:51:51;7.78;;;2.80;;
58260;SDS011;44058;52.898;6.502;2023-02-18T13:54:25;8.57;;;2.05;;
58260;SDS011;44058;52.898;6.502;2023-02-18T13:56:59;10.27;;;2.00;;
58260;SDS011;44058;52.898;6.502;2023-02-18T14:01:55;7.65;;;2.38;;
58260;SDS011;44058;52.898;6.502;2023-02-18T14:09:44;4.40;;;2.00;;
58260;SDS011;44058;52.898;6.502;2023-02-18T14:14:55;10.65;;;2.30;;
58260;SDS011;44058;52.898;6.502;2023-02-18T14:22:31;8.45;;;2.40;;
58260;SDS011;44058;52.898;6.502;2023-02-18T14:27:30;13.82;;;2.42;;
58260;SDS011;44058;52.898;6.502;2023-02-18T14:30:01;11.30;;;2.90;;
58260;SDS011;44058;52.898;6.502;2023-02-18T14:32:30;6.82;;;2.22;;
58260;SDS011;44058;52.898;6.502;2023-02-18T14:34:59;9.57;;;2.25;;
58260;SDS011;44058;52.898;6.502;2023-02-18T14:37:46;8.55;;;2.30;;
58260;SDS011;44058;52.898;6.502;2023-02-18T14:50:43;8.35;;;2.25;;
58260;SDS011;44058;52.898;6.502;2023-02-18T14:53:11;9.40;;;2.10;;
58260;SDS011;44058;52.898;6.502;2023-02-18T14:55:43;10.77;;;2.78;;
58260;SDS011;44058;52.898;6.502;2023-02-18T15:00:46;9.50;;;2.25;;
58260;SDS011;44058;52.898;6.502;2023-02-18T15:03:13;10.05;;;2.30;;
58260;SDS011;44058;52.898;6.502;2023-02-18T15:05:40;7.07;;;2.42;;
58260;SDS011;44058;52.898;6.502;2023-02-18T15:08:12;8.75;;;1.90;;
58260;SDS011;44058;52.898;6.502;2023-02-18T15:10:40;9.82;;;2.15;;
58260;SDS011;44058;52.898;6.502;2023-02-18T15:15:58;11.93;;;2.33;;
58260;SDS011;44058;52.898;6.502;2023-02-18T15:18:39;13.63;;;2.78;;
58260;SDS011;44058;52.898;6.502;2023-02-18T15:21:06;11.38;;;2.33;;
58260;SDS011;44058;52.898;6.502;2023-02-18T15:23:37;7.63;;;2.50;;
58260;SDS011;44058;52.898;6.502;2023-02-18T15:26:04;13.07;;;2.92;;
58260;SDS011;44058;52.898;6.502;2023-02-18T15:28:32;11.52;;;2.45;;
58260;SDS011;44058;52.898;6.502;2023-02-18T15:30:59;9.05;;;2.20;;
58260;SDS011;44058;52.898;6.502;2023-02-18T15:33:26;9.90;;;2.20;;
58260;SDS011;44058;52.898;6.502;2023-02-18T15:36:00;9.65;;;2.60;;
58260;SDS011;44058;52.898;6.502;2023-02-18T15:38:26;13.40;;;3.05;;
58260;SDS011;44058;52.898;6.502;2023-02-18T15:40:52;9.15;;;2.40;;
58260;SDS011;44058;52.898;6.502;2023-02-18T15:43:20;11.82;;;2.42;;
58260;SDS011;44058;52.898;6.502;2023-02-18T15:45:46;12.40;;;3.05;;
58260;SDS011;44058;52.898;6.502;2023-02-18T15:48:26;10.63;;;2.10;;
58260;SDS011;44058;52.898;6.502;2023-02-18T15:50:55;11.15;;;2.72;;
58260;SDS011;44058;52.898;6.502;2023-02-18T15:53:22;9.18;;;2.38;;
58260;SDS011;44058;52.898;6.502;2023-02-18T15:55:50;10.45;;;2.72;;
58260;SDS011;44058;52.898;6.502;2023-02-18T15:58:30;8.73;;;2.28;;
58260;SDS011;44058;52.898;6.502;2023-02-18T16:01:22;13.38;;;3.88;;
58260;SDS011;44058;52.898;6.502;2023-02-18T16:03:49;17.30;;;4.03;;
58260;SDS011;44058;52.898;6.502;2023-02-18T16:08:45;12.90;;;2.35;;
58260;SDS011;44058;52.898;6.502;2023-02-18T16:11:11;13.07;;;2.80;;
58260;SDS011;44058;52.898;6.502;2023-02-18T16:13:46;11.90;;;2.42;;
58260;SDS011;44058;52.898;6.502;2023-02-18T16:16:27;10.45;;;2.42;;
58260;SDS011;44058;52.898;6.502;2023-02-18T16:18:54;12.10;;;2.67;;
58260;SDS011;44058;52.898;6.502;2023-02-18T16:21:37;8.68;;;2.03;;
58260;SDS011;44058;52.898;6.502;2023-02-18T16:24:21;12.52;;;2.78;;
58260;SDS011;44058;52.898;6.502;2023-02-18T16:26:49;13.68;;;2.92;;
58260;SDS011;44058;52.898;6.502;2023-02-18T16:29:22;11.50;;;2.70;;
58260;SDS011;44058;52.898;6.502;2023-02-18T16:31:48;12.23;;;2.22;;
58260;SDS011;44058;52.898;6.502;2023-02-18T16:34:15;11.32;;;2.13;;
58260;SDS011;44058;52.898;6.502;2023-02-18T16:36:41;9.55;;;2.38;;
58260;SDS011;44058;52.898;6.502;2023-02-18T16:39:28;12.02;;;2.80;;
58260;SDS011;44058;52.898;6.502;2023-02-18T16:41:55;13.40;;;2.67;;
58260;SDS011;44058;52.898;6.502;2023-02-18T16:44:22;10.50;;;2.30;;
58260;SDS011;44058;52.898;6.502;2023-02-18T16:46:48;10.35;;;2.20;;
58260;SDS011;44058;52.898;6.502;2023-02-18T16:49:15;9.13;;;2.40;;
58260;SDS011;44058;52.898;6.502;2023-02-18T16:51:42;15.13;;;3.15;;
58260;SDS011;44058;52.898;6.502;2023-02-18T16:54:11;12.40;;;2.38;;
58260;SDS011;44058;52.898;6.502;2023-02-18T16:56:38;12.65;;;3.03;;
58260;SDS011;44058;52.898;6.502;2023-02-18T16:59:05;15.88;;;3.30;;
58260;SDS011;44058;52.898;6.502;2023-02-18T17:01:39;8.93;;;1.90;;